sensor_id;sensor_type;location;lat;lon;timestamp;temperature;humidity
73547;SHT30;61807;48.384;-4.386;2022-09-17T00:01:51;13.80;72.82
73547;SHT30;61807;48.384;-4.386;2022-09-17T00:04:17;13.80;72.85
73547;SHT30;61807;48.384;-4.386;2022-09-17T00:06:42;13.80;72.92
73547;SHT30;61807;48.384;-4.386;2022-09-17T00:09:08;13.79;73.01
73547;SHT30;61807;48.384;-4.386;2022-09-17T00:11:35;13.76;73.06
73547;SHT30;61807;48.384;-4.386;2022-09-17T00:14:02;13.73;73.07
73547;SHT30;61807;48.384;-4.386;2022-09-17T00:18:54;13.76;73.06
73547;SHT30;61807;48.384;-4.386;2022-09-17T00:21:20;13.78;73.15
73547;SHT30;61807;48.384;-4.386;2022-09-17T00:23:47;13.78;73.14
73547;SHT30;61807;48.384;-4.386;2022-09-17T00:26:12;13.76;73.06
73547;SHT30;61807;48.384;-4.386;2022-09-17T00:28:38;13.75;73.01
73547;SHT30;61807;48.384;-4.386;2022-09-17T00:31:08;13.70;73.06
73547;SHT30;61807;48.384;-4.386;2022-09-17T00:33:34;13.68;73.08
73547;SHT30;61807;48.384;-4.386;2022-09-17T00:36:01;13.63;73.20
73547;SHT30;61807;48.384;-4.386;2022-09-17T00:38:27;13.63;73.26
73547;SHT30;61807;48.384;-4.386;2022-09-17T00:40:53;13.61;73.32
73547;SHT30;61807;48.384;-4.386;2022-09-17T00:43:42;13.59;73.39
73547;SHT30;61807;48.384;-4.386;2022-09-17T00:48:54;13.58;73.42
73547;SHT30;61807;48.384;-4.386;2022-09-17T00:51:29;13.58;73.51
73547;SHT30;61807;48.384;-4.386;2022-09-17T00:53:59;13.55;73.38
73547;SHT30;61807;48.384;-4.386;2022-09-17T00:56:29;13.55;73.50
73547;SHT30;61807;48.384;-4.386;2022-09-17T00:58:56;13.54;73.54
73547;SHT30;61807;48.384;-4.386;2022-09-17T01:01:22;13.59;73.58
73547;SHT30;61807;48.384;-4.386;2022-09-17T01:03:48;13.58;73.52
73547;SHT30;61807;48.384;-4.386;2022-09-17T01:06:23;13.54;73.58
73547;SHT30;61807;48.384;-4.386;2022-09-17T01:17:27;13.48;73.66
73547;SHT30;61807;48.384;-4.386;2022-09-17T01:33:02;13.47;73.77
73547;SHT30;61807;48.384;-4.386;2022-09-17T01:38:42;13.47;73.86
73547;SHT30;61807;48.384;-4.386;2022-09-17T01:41:31;13.45;73.86
73547;SHT30;61807;48.384;-4.386;2022-09-17T01:46:45;13.39;73.89
73547;SHT30;61807;48.384;-4.386;2022-09-17T01:49:14;13.37;73.89
73547;SHT30;61807;48.384;-4.386;2022-09-17T01:51:44;13.34;73.99
73547;SHT30;61807;48.384;-4.386;2022-09-17T01:54:19;13.34;74.00
73547;SHT30;61807;48.384;-4.386;2022-09-17T01:56:55;13.35;74.17
73547;SHT30;61807;48.384;-4.386;2022-09-17T02:05:23;13.32;74.15
73547;SHT30;61807;48.384;-4.386;2022-09-17T02:07:55;13.34;74.22
73547;SHT30;61807;48.384;-4.386;2022-09-17T02:10:28;13.34;74.25
73547;SHT30;61807;48.384;-4.386;2022-09-17T02:12:59;13.37;74.30
73547;SHT30;61807;48.384;-4.386;2022-09-17T02:15:33;13.38;74.26
73547;SHT30;61807;48.384;-4.386;2022-09-17T02:18:21;13.34;74.23
73547;SHT30;61807;48.384;-4.386;2022-09-17T02:21:00;13.31;74.18
73547;SHT30;61807;48.384;-4.386;2022-09-17T02:23:29;13.30;74.24
73547;SHT30;61807;48.384;-4.386;2022-09-17T02:26:04;13.25;74.35
73547;SHT30;61807;48.384;-4.386;2022-09-17T02:31:07;13.22;74.53
73547;SHT30;61807;48.384;-4.386;2022-09-17T02:33:33;13.24;74.56
73547;SHT30;61807;48.384;-4.386;2022-09-17T02:36:00;13.28;74.63
73547;SHT30;61807;48.384;-4.386;2022-09-17T02:38:28;13.31;74.73
73547;SHT30;61807;48.384;-4.386;2022-09-17T02:41:04;13.31;74.80
73547;SHT30;61807;48.384;-4.386;2022-09-17T02:49:23;13.27;74.76
73547;SHT30;61807;48.384;-4.386;2022-09-17T03:02:27;13.30;74.74
73547;SHT30;61807;48.384;-4.386;2022-09-17T03:04:53;13.28;74.65
73547;SHT30;61807;48.384;-4.386;2022-09-17T03:07:21;13.24;74.63
73547;SHT30;61807;48.384;-4.386;2022-09-17T03:09:47;13.21;74.57
73547;SHT30;61807;48.384;-4.386;2022-09-17T03:12:13;13.15;74.49
73547;SHT30;61807;48.384;-4.386;2022-09-17T03:14:38;13.12;74.46
73547;SHT30;61807;48.384;-4.386;2022-09-17T03:17:03;13.10;74.63
73547;SHT30;61807;48.384;-4.386;2022-09-17T03:19:29;13.10;74.72
73547;SHT30;61807;48.384;-4.386;2022-09-17T03:21:54;13.07;74.65
73547;SHT30;61807;48.384;-4.386;2022-09-17T03:24:20;13.03;74.63
73547;SHT30;61807;48.384;-4.386;2022-09-17T03:26:45;13.07;74.81
73547;SHT30;61807;48.384;-4.386;2022-09-17T03:29:13;13.00;74.83
73547;SHT30;61807;48.384;-4.386;2022-09-17T03:31:39;13.00;74.85
73547;SHT30;61807;48.384;-4.386;2022-09-17T03:34:05;12.97;74.73
73547;SHT30;61807;48.384;-4.386;2022-09-17T03:36:30;12.94;74.68
73547;SHT30;61807;48.384;-4.386;2022-09-17T03:38:56;12.96;74.65
73547;SHT30;61807;48.384;-4.386;2022-09-17T03:41:22;12.94;74.73
73547;SHT30;61807;48.384;-4.386;2022-09-17T03:43:47;12.91;74.72
73547;SHT30;61807;48.384;-4.386;2022-09-17T03:46:13;12.94;74.67
73547;SHT30;61807;48.384;-4.386;2022-09-17T03:48:38;12.89;74.58
73547;SHT30;61807;48.384;-4.386;2022-09-17T03:51:04;12.86;74.51
73547;SHT30;61807;48.384;-4.386;2022-09-17T03:53:31;12.80;74.72
73547;SHT30;61807;48.384;-4.386;2022-09-17T03:55:58;12.81;74.78
73547;SHT30;61807;48.384;-4.386;2022-09-17T03:58:24;12.83;74.36
73547;SHT30;61807;48.384;-4.386;2022-09-17T04:00:49;12.76;74.13
73547;SHT30;61807;48.384;-4.386;2022-09-17T04:03:17;12.73;74.41
73547;SHT30;61807;48.384;-4.386;2022-09-17T04:05:43;12.72;74.46
73547;SHT30;61807;48.384;-4.386;2022-09-17T04:08:08;12.69;74.62
73547;SHT30;61807;48.384;-4.386;2022-09-17T04:10:34;12.67;74.57
73547;SHT30;61807;48.384;-4.386;2022-09-17T04:12:59;12.66;74.54
73547;SHT30;61807;48.384;-4.386;2022-09-17T04:15:24;12.62;74.64
73547;SHT30;61807;48.384;-4.386;2022-09-17T04:17:51;12.63;74.77
73547;SHT30;61807;48.384;-4.386;2022-09-17T04:20:19;12.63;75.04
73547;SHT30;61807;48.384;-4.386;2022-09-17T04:22:44;12.67;75.12
73547;SHT30;61807;48.384;-4.386;2022-09-17T04:25:09;12.67;75.04
73547;SHT30;61807;48.384;-4.386;2022-09-17T04:27:35;12.64;75.09
73547;SHT30;61807;48.384;-4.386;2022-09-17T04:30:01;12.63;75.25
73547;SHT30;61807;48.384;-4.386;2022-09-17T04:32:26;12.64;75.27
73547;SHT30;61807;48.384;-4.386;2022-09-17T04:34:51;12.66;75.20
73547;SHT30;61807;48.384;-4.386;2022-09-17T04:37:17;12.67;75.27
73547;SHT30;61807;48.384;-4.386;2022-09-17T04:39:43;12.67;75.32
73547;SHT30;61807;48.384;-4.386;2022-09-17T04:42:09;12.69;75.32
73547;SHT30;61807;48.384;-4.386;2022-09-17T04:44:34;12.64;75.30
73547;SHT30;61807;48.384;-4.386;2022-09-17T04:46:59;12.66;75.23
73547;SHT30;61807;48.384;-4.386;2022-09-17T04:49:25;12.62;75.26
73547;SHT30;61807;48.384;-4.386;2022-09-17T04:51:54;12.63;75.16
73547;SHT30;61807;48.384;-4.386;2022-09-17T04:54:19;12.60;75.15
73547;SHT30;61807;48.384;-4.386;2022-09-17T04:56:44;12.60;75.09
73547;SHT30;61807;48.384;-4.386;2022-09-17T04:59:10;12.59;75.26
73547;SHT30;61807;48.384;-4.386;2022-09-17T05:01:35;12.57;75.29
73547;SHT30;61807;48.384;-4.386;2022-09-17T05:04:00;12.59;75.09
73547;SHT30;61807;48.384;-4.386;2022-09-17T05:06:26;12.56;74.84
73547;SHT30;61807;48.384;-4.386;2022-09-17T05:08:51;12.53;74.73
73547;SHT30;61807;48.384;-4.386;2022-09-17T05:11:17;12.49;74.87
73547;SHT30;61807;48.384;-4.386;2022-09-17T05:13:42;12.45;74.82
73547;SHT30;61807;48.384;-4.386;2022-09-17T05:16:08;12.45;74.74
73547;SHT30;61807;48.384;-4.386;2022-09-17T05:18:33;12.39;74.70
73547;SHT30;61807;48.384;-4.386;2022-09-17T05:20:58;12.39;74.55
73547;SHT30;61807;48.384;-4.386;2022-09-17T05:23:24;12.36;74.40
73547;SHT30;61807;48.384;-4.386;2022-09-17T05:25:49;12.29;74.68
73547;SHT30;61807;48.384;-4.386;2022-09-17T05:28:15;12.31;74.65
73547;SHT30;61807;48.384;-4.386;2022-09-17T05:30:40;12.26;74.61
73547;SHT30;61807;48.384;-4.386;2022-09-17T05:33:06;12.21;74.64
73547;SHT30;61807;48.384;-4.386;2022-09-17T05:35:33;12.18;74.67
73547;SHT30;61807;48.384;-4.386;2022-09-17T05:38:04;12.15;74.71
73547;SHT30;61807;48.384;-4.386;2022-09-17T05:40:30;12.17;74.51
73547;SHT30;61807;48.384;-4.386;2022-09-17T05:43:01;12.14;74.34
73547;SHT30;61807;48.384;-4.386;2022-09-17T05:45:28;12.10;74.44
73547;SHT30;61807;48.384;-4.386;2022-09-17T05:47:55;12.11;74.65
73547;SHT30;61807;48.384;-4.386;2022-09-17T05:50:21;12.11;74.77
73547;SHT30;61807;48.384;-4.386;2022-09-17T05:52:46;12.12;74.74
73547;SHT30;61807;48.384;-4.386;2022-09-17T05:55:12;12.11;74.60
73547;SHT30;61807;48.384;-4.386;2022-09-17T05:57:37;12.08;74.58
73547;SHT30;61807;48.384;-4.386;2022-09-17T06:00:03;12.06;74.64
73547;SHT30;61807;48.384;-4.386;2022-09-17T06:02:29;12.06;74.77
73547;SHT30;61807;48.384;-4.386;2022-09-17T06:04:54;12.08;74.75
73547;SHT30;61807;48.384;-4.386;2022-09-17T06:07:21;12.08;74.81
73547;SHT30;61807;48.384;-4.386;2022-09-17T06:09:46;12.10;75.03
73547;SHT30;61807;48.384;-4.386;2022-09-17T06:12:12;12.12;75.09
73547;SHT30;61807;48.384;-4.386;2022-09-17T06:14:37;12.12;75.15
73547;SHT30;61807;48.384;-4.386;2022-09-17T06:17:02;12.15;75.30
73547;SHT30;61807;48.384;-4.386;2022-09-17T06:19:28;12.18;75.21
73547;SHT30;61807;48.384;-4.386;2022-09-17T06:21:54;12.15;75.02
73547;SHT30;61807;48.384;-4.386;2022-09-17T06:24:19;12.14;75.08
73547;SHT30;61807;48.384;-4.386;2022-09-17T06:26:44;12.15;75.13
73547;SHT30;61807;48.384;-4.386;2022-09-17T06:29:10;12.15;75.35
73547;SHT30;61807;48.384;-4.386;2022-09-17T06:31:39;12.20;75.49
73547;SHT30;61807;48.384;-4.386;2022-09-17T06:34:04;12.24;75.48
73547;SHT30;61807;48.384;-4.386;2022-09-17T06:36:29;12.24;75.27
73547;SHT30;61807;48.384;-4.386;2022-09-17T06:38:55;12.21;75.07
73547;SHT30;61807;48.384;-4.386;2022-09-17T06:41:21;12.20;75.00
73547;SHT30;61807;48.384;-4.386;2022-09-17T06:43:46;12.17;74.95
73547;SHT30;61807;48.384;-4.386;2022-09-17T06:46:11;12.14;74.95
73547;SHT30;61807;48.384;-4.386;2022-09-17T06:48:37;12.12;75.03
73547;SHT30;61807;48.384;-4.386;2022-09-17T06:51:05;12.12;75.01
73547;SHT30;61807;48.384;-4.386;2022-09-17T06:53:31;12.17;75.01
73547;SHT30;61807;48.384;-4.386;2022-09-17T06:55:58;12.17;74.92
73547;SHT30;61807;48.384;-4.386;2022-09-17T06:58:25;12.18;74.85
73547;SHT30;61807;48.384;-4.386;2022-09-17T07:00:51;12.20;75.01
73547;SHT30;61807;48.384;-4.386;2022-09-17T07:03:16;12.22;75.18
73547;SHT30;61807;48.384;-4.386;2022-09-17T07:05:43;12.22;75.08
73547;SHT30;61807;48.384;-4.386;2022-09-17T07:08:09;12.25;75.01
73547;SHT30;61807;48.384;-4.386;2022-09-17T07:10:35;12.28;75.05
73547;SHT30;61807;48.384;-4.386;2022-09-17T07:13:02;12.33;75.08
73547;SHT30;61807;48.384;-4.386;2022-09-17T07:15:28;12.33;75.00
73547;SHT30;61807;48.384;-4.386;2022-09-17T07:17:54;12.38;74.89
73547;SHT30;61807;48.384;-4.386;2022-09-17T07:20:19;12.35;74.93
73547;SHT30;61807;48.384;-4.386;2022-09-17T07:22:45;12.39;75.16
73547;SHT30;61807;48.384;-4.386;2022-09-17T07:25:10;12.41;75.19
73547;SHT30;61807;48.384;-4.386;2022-09-17T07:27:36;12.45;75.30
73547;SHT30;61807;48.384;-4.386;2022-09-17T07:30:02;12.46;75.32
73547;SHT30;61807;48.384;-4.386;2022-09-17T07:32:29;12.49;75.49
73547;SHT30;61807;48.384;-4.386;2022-09-17T07:34:55;12.55;75.46
73547;SHT30;61807;48.384;-4.386;2022-09-17T07:37:20;12.59;75.28
73547;SHT30;61807;48.384;-4.386;2022-09-17T07:39:46;12.62;75.36
73547;SHT30;61807;48.384;-4.386;2022-09-17T07:42:11;12.63;75.41
73547;SHT30;61807;48.384;-4.386;2022-09-17T07:44:36;12.67;75.51
73547;SHT30;61807;48.384;-4.386;2022-09-17T07:47:03;12.69;75.62
73547;SHT30;61807;48.384;-4.386;2022-09-17T07:49:28;12.73;75.65
73547;SHT30;61807;48.384;-4.386;2022-09-17T07:51:55;12.79;75.77
73547;SHT30;61807;48.384;-4.386;2022-09-17T07:54:21;12.84;75.75
73547;SHT30;61807;48.384;-4.386;2022-09-17T07:56:47;12.89;75.79
73547;SHT30;61807;48.384;-4.386;2022-09-17T07:59:12;12.90;75.81
73547;SHT30;61807;48.384;-4.386;2022-09-17T08:01:38;12.97;75.83
73547;SHT30;61807;48.384;-4.386;2022-09-17T08:04:03;13.01;75.86
73547;SHT30;61807;48.384;-4.386;2022-09-17T08:06:29;13.06;75.95
73547;SHT30;61807;48.384;-4.386;2022-09-17T08:08:55;13.08;76.03
73547;SHT30;61807;48.384;-4.386;2022-09-17T08:11:23;13.14;76.07
73547;SHT30;61807;48.384;-4.386;2022-09-17T08:13:50;13.22;76.09
73547;SHT30;61807;48.384;-4.386;2022-09-17T08:16:16;13.27;76.07
73547;SHT30;61807;48.384;-4.386;2022-09-17T08:18:43;13.34;76.02
73547;SHT30;61807;48.384;-4.386;2022-09-17T08:21:11;13.41;75.97
73547;SHT30;61807;48.384;-4.386;2022-09-17T08:23:38;13.44;75.90
73547;SHT30;61807;48.384;-4.386;2022-09-17T08:26:05;13.47;75.83
73547;SHT30;61807;48.384;-4.386;2022-09-17T08:28:33;13.52;76.02
73547;SHT30;61807;48.384;-4.386;2022-09-17T08:31:01;13.63;76.28
73547;SHT30;61807;48.384;-4.386;2022-09-17T08:33:33;13.73;76.30
73547;SHT30;61807;48.384;-4.386;2022-09-17T08:35:59;13.82;76.13
73547;SHT30;61807;48.384;-4.386;2022-09-17T08:38:28;13.89;76.05
73547;SHT30;61807;48.384;-4.386;2022-09-17T08:46:16;14.06;75.84
73547;SHT30;61807;48.384;-4.386;2022-09-17T08:48:46;14.06;75.81
73547;SHT30;61807;48.384;-4.386;2022-09-17T08:54:27;14.21;75.40
73547;SHT30;61807;48.384;-4.386;2022-09-17T08:59:48;14.38;75.00
73547;SHT30;61807;48.384;-4.386;2022-09-17T09:02:33;14.49;74.61
73547;SHT30;61807;48.384;-4.386;2022-09-17T09:05:15;14.64;74.16
73547;SHT30;61807;48.384;-4.386;2022-09-17T09:07:54;14.74;73.89
73547;SHT30;61807;48.384;-4.386;2022-09-17T09:10:28;14.84;73.74
73547;SHT30;61807;48.384;-4.386;2022-09-17T09:12:57;14.88;73.19
73547;SHT30;61807;48.384;-4.386;2022-09-17T09:15:54;14.93;72.32
73547;SHT30;61807;48.384;-4.386;2022-09-17T09:18:23;14.99;72.23
73547;SHT30;61807;48.384;-4.386;2022-09-17T09:26:18;15.15;71.83
73547;SHT30;61807;48.384;-4.386;2022-09-17T09:29:07;15.22;71.90
73547;SHT30;61807;48.384;-4.386;2022-09-17T09:34:33;15.39;71.20
73547;SHT30;61807;48.384;-4.386;2022-09-17T09:37:29;15.46;70.78
73547;SHT30;61807;48.384;-4.386;2022-09-17T09:40:02;15.51;69.90
73547;SHT30;61807;48.384;-4.386;2022-09-17T09:42:34;15.60;69.92
73547;SHT30;61807;48.384;-4.386;2022-09-17T09:45:11;15.65;69.65
73547;SHT30;61807;48.384;-4.386;2022-09-17T09:50:37;15.83;68.95
73547;SHT30;61807;48.384;-4.386;2022-09-17T09:53:30;15.85;68.14
73547;SHT30;61807;48.384;-4.386;2022-09-17T09:58:48;15.95;68.26
73547;SHT30;61807;48.384;-4.386;2022-09-17T10:01:16;16.00;67.16
73547;SHT30;61807;48.384;-4.386;2022-09-17T10:03:45;16.05;67.53
73547;SHT30;61807;48.384;-4.386;2022-09-17T10:06:12;16.09;67.06
73547;SHT30;61807;48.384;-4.386;2022-09-17T10:08:40;16.14;66.38
73547;SHT30;61807;48.384;-4.386;2022-09-17T10:13:37;16.21;65.09
73547;SHT30;61807;48.384;-4.386;2022-09-17T10:16:26;16.25;65.36
73547;SHT30;61807;48.384;-4.386;2022-09-17T10:21:37;16.39;64.89
73547;SHT30;61807;48.384;-4.386;2022-09-17T10:24:14;16.66;65.17
73547;SHT30;61807;48.384;-4.386;2022-09-17T10:26:44;16.95;64.84
73547;SHT30;61807;48.384;-4.386;2022-09-17T10:29:15;17.10;63.07
73547;SHT30;61807;48.384;-4.386;2022-09-17T10:31:50;17.15;63.67
73547;SHT30;61807;48.384;-4.386;2022-09-17T10:34:21;17.24;62.27
73547;SHT30;61807;48.384;-4.386;2022-09-17T10:36:47;17.27;61.98
73547;SHT30;61807;48.384;-4.386;2022-09-17T10:42:13;17.25;61.80
73547;SHT30;61807;48.384;-4.386;2022-09-17T10:49:59;17.21;61.07
73547;SHT30;61807;48.384;-4.386;2022-09-17T10:52:34;17.21;60.60
73547;SHT30;61807;48.384;-4.386;2022-09-17T11:08:36;17.87;60.29
73547;SHT30;61807;48.384;-4.386;2022-09-17T11:12:01;17.94;59.58
73547;SHT30;61807;48.384;-4.386;2022-09-17T11:26:07;18.20;58.70
73547;SHT30;61807;48.384;-4.386;2022-09-17T11:28:51;18.30;58.24
73547;SHT30;61807;48.384;-4.386;2022-09-17T11:42:11;18.75;55.77
73547;SHT30;61807;48.384;-4.386;2022-09-17T11:44:44;18.98;55.55
73547;SHT30;61807;48.384;-4.386;2022-09-17T11:47:35;19.37;54.88
73547;SHT30;61807;48.384;-4.386;2022-09-17T11:50:16;19.79;54.20
73547;SHT30;61807;48.384;-4.386;2022-09-17T11:52:53;20.28;53.91
73547;SHT30;61807;48.384;-4.386;2022-09-17T11:55:29;20.88;52.50
73547;SHT30;61807;48.384;-4.386;2022-09-17T11:58:20;21.32;52.39
73547;SHT30;61807;48.384;-4.386;2022-09-17T12:00:53;21.34;51.55
73547;SHT30;61807;48.384;-4.386;2022-09-17T12:03:29;21.11;51.70
73547;SHT30;61807;48.384;-4.386;2022-09-17T12:06:01;21.24;51.75
73547;SHT30;61807;48.384;-4.386;2022-09-17T12:11:42;22.00;49.28
73547;SHT30;61807;48.384;-4.386;2022-09-17T12:14:19;22.48;47.44
73547;SHT30;61807;48.384;-4.386;2022-09-17T12:16:49;23.05;48.10
73547;SHT30;61807;48.384;-4.386;2022-09-17T12:19:24;23.74;47.60
73547;SHT30;61807;48.384;-4.386;2022-09-17T12:21:55;24.09;47.30
73547;SHT30;61807;48.384;-4.386;2022-09-17T12:24:24;23.57;46.35
73547;SHT30;61807;48.384;-4.386;2022-09-17T12:58:33;28.94;38.76
73547;SHT30;61807;48.384;-4.386;2022-09-17T13:01:12;29.00;36.90
73547;SHT30;61807;48.384;-4.386;2022-09-17T13:03:46;28.97;37.78
73547;SHT30;61807;48.384;-4.386;2022-09-17T13:06:24;28.96;37.18
73547;SHT30;61807;48.384;-4.386;2022-09-17T13:09:05;28.86;37.42
73547;SHT30;61807;48.384;-4.386;2022-09-17T13:17:36;26.47;38.89
73547;SHT30;61807;48.384;-4.386;2022-09-17T13:20:22;25.73;40.29
73547;SHT30;61807;48.384;-4.386;2022-09-17T13:22:51;25.25;41.02
73547;SHT30;61807;48.384;-4.386;2022-09-17T13:25:19;24.77;41.43
73547;SHT30;61807;48.384;-4.386;2022-09-17T13:27:46;24.26;42.17
73547;SHT30;61807;48.384;-4.386;2022-09-17T13:30:18;23.87;42.96
73547;SHT30;61807;48.384;-4.386;2022-09-17T13:32:49;23.60;43.48
73547;SHT30;61807;48.384;-4.386;2022-09-17T13:37:42;23.00;43.82
73547;SHT30;61807;48.384;-4.386;2022-09-17T13:40:25;22.71;44.39
73547;SHT30;61807;48.384;-4.386;2022-09-17T13:42:54;22.51;44.01
73547;SHT30;61807;48.384;-4.386;2022-09-17T13:45:21;22.27;45.14
73547;SHT30;61807;48.384;-4.386;2022-09-17T13:50:34;22.51;44.91
73547;SHT30;61807;48.384;-4.386;2022-09-17T13:53:23;22.48;45.10
73547;SHT30;61807;48.384;-4.386;2022-09-17T13:55:58;22.18;44.91
73547;SHT30;61807;48.384;-4.386;2022-09-17T13:58:27;21.86;45.73
73547;SHT30;61807;48.384;-4.386;2022-09-17T14:05:53;23.00;44.12
73547;SHT30;61807;48.384;-4.386;2022-09-17T14:08:48;23.75;42.93
73547;SHT30;61807;48.384;-4.386;2022-09-17T14:19:11;24.83;40.11
73547;SHT30;61807;48.384;-4.386;2022-09-17T14:27:32;24.86;40.33
73547;SHT30;61807;48.384;-4.386;2022-09-17T14:30:20;24.86;40.63
73547;SHT30;61807;48.384;-4.386;2022-09-17T14:33:14;24.86;40.38
73547;SHT30;61807;48.384;-4.386;2022-09-17T14:35:45;24.74;40.94
73547;SHT30;61807;48.384;-4.386;2022-09-17T14:38:19;24.39;41.45
73547;SHT30;61807;48.384;-4.386;2022-09-17T14:41:04;23.89;42.45
73547;SHT30;61807;48.384;-4.386;2022-09-17T14:45:57;23.53;42.28
73547;SHT30;61807;48.384;-4.386;2022-09-17T14:48:27;23.37;42.44
73547;SHT30;61807;48.384;-4.386;2022-09-17T14:53:41;22.43;43.53
73547;SHT30;61807;48.384;-4.386;2022-09-17T14:56:09;21.93;44.45
73547;SHT30;61807;48.384;-4.386;2022-09-17T14:58:40;21.55;44.65
73547;SHT30;61807;48.384;-4.386;2022-09-17T15:01:29;21.20;45.56
73547;SHT30;61807;48.384;-4.386;2022-09-17T15:06:39;20.56;46.74
73547;SHT30;61807;48.384;-4.386;2022-09-17T15:09:05;20.37;47.17
73547;SHT30;61807;48.384;-4.386;2022-09-17T15:11:40;20.24;47.67
73547;SHT30;61807;48.384;-4.386;2022-09-17T15:14:15;20.14;48.24
73547;SHT30;61807;48.384;-4.386;2022-09-17T15:16:47;19.96;47.85
73547;SHT30;61807;48.384;-4.386;2022-09-17T15:21:51;19.68;48.76
73547;SHT30;61807;48.384;-4.386;2022-09-17T15:24:39;19.61;48.90
73547;SHT30;61807;48.384;-4.386;2022-09-17T15:29:55;19.37;49.20
73547;SHT30;61807;48.384;-4.386;2022-09-17T15:32:21;19.29;49.52
73547;SHT30;61807;48.384;-4.386;2022-09-17T15:37:48;19.12;50.05
73547;SHT30;61807;48.384;-4.386;2022-09-17T15:45:47;18.75;50.08
73547;SHT30;61807;48.384;-4.386;2022-09-17T15:48:34;18.68;50.35
73547;SHT30;61807;48.384;-4.386;2022-09-17T15:51:00;18.58;50.42
73547;SHT30;61807;48.384;-4.386;2022-09-17T15:53:31;18.50;50.81
73547;SHT30;61807;48.384;-4.386;2022-09-17T15:56:03;18.43;49.97
73547;SHT30;61807;48.384;-4.386;2022-09-17T15:58:33;18.28;50.36
73547;SHT30;61807;48.384;-4.386;2022-09-17T16:08:48;18.01;50.80
73547;SHT30;61807;48.384;-4.386;2022-09-17T16:11:17;17.99;51.21
73547;SHT30;61807;48.384;-4.386;2022-09-17T16:13:46;17.94;51.26
73547;SHT30;61807;48.384;-4.386;2022-09-17T16:16:20;17.93;50.69
73547;SHT30;61807;48.384;-4.386;2022-09-17T16:18:47;17.85;51.20
73547;SHT30;61807;48.384;-4.386;2022-09-17T16:21:13;17.79;51.38
73547;SHT30;61807;48.384;-4.386;2022-09-17T16:23:39;17.69;51.59
73547;SHT30;61807;48.384;-4.386;2022-09-17T16:26:09;17.63;51.76
73547;SHT30;61807;48.384;-4.386;2022-09-17T16:28:37;17.59;51.78
73547;SHT30;61807;48.384;-4.386;2022-09-17T16:31:04;17.56;51.95
73547;SHT30;61807;48.384;-4.386;2022-09-17T16:33:30;17.51;52.11
73547;SHT30;61807;48.384;-4.386;2022-09-17T16:35:56;17.43;51.91
73547;SHT30;61807;48.384;-4.386;2022-09-17T16:38:22;17.39;52.13
73547;SHT30;61807;48.384;-4.386;2022-09-17T16:40:48;17.35;52.37
73547;SHT30;61807;48.384;-4.386;2022-09-17T16:43:14;17.31;52.63
73547;SHT30;61807;48.384;-4.386;2022-09-17T16:45:39;17.31;52.75
73547;SHT30;61807;48.384;-4.386;2022-09-17T16:48:05;17.25;52.87
73547;SHT30;61807;48.384;-4.386;2022-09-17T16:50:31;17.21;52.89
73547;SHT30;61807;48.384;-4.386;2022-09-17T16:52:57;17.17;53.09
73547;SHT30;61807;48.384;-4.386;2022-09-17T16:55:22;17.12;53.34
73547;SHT30;61807;48.384;-4.386;2022-09-17T16:57:48;17.08;53.52
73547;SHT30;61807;48.384;-4.386;2022-09-17T17:00:16;17.01;53.64
73547;SHT30;61807;48.384;-4.386;2022-09-17T17:02:47;16.97;53.76
73547;SHT30;61807;48.384;-4.386;2022-09-17T17:05:15;16.95;53.58
73547;SHT30;61807;48.384;-4.386;2022-09-17T17:07:40;16.90;53.79
73547;SHT30;61807;48.384;-4.386;2022-09-17T17:10:06;16.85;54.01
73547;SHT30;61807;48.384;-4.386;2022-09-17T17:12:33;16.84;54.04
73547;SHT30;61807;48.384;-4.386;2022-09-17T17:14:59;16.77;54.39
73547;SHT30;61807;48.384;-4.386;2022-09-17T17:17:25;16.79;54.61
73547;SHT30;61807;48.384;-4.386;2022-09-17T17:19:51;16.70;54.55
73547;SHT30;61807;48.384;-4.386;2022-09-17T17:22:17;16.73;54.62
73547;SHT30;61807;48.384;-4.386;2022-09-17T17:24:43;16.67;54.70
73547;SHT30;61807;48.384;-4.386;2022-09-17T17:27:08;16.63;54.80
73547;SHT30;61807;48.384;-4.386;2022-09-17T17:29:34;16.55;54.82
73547;SHT30;61807;48.384;-4.386;2022-09-17T17:32:01;16.52;55.08
73547;SHT30;61807;48.384;-4.386;2022-09-17T17:34:26;16.48;55.15
73547;SHT30;61807;48.384;-4.386;2022-09-17T17:36:51;16.48;55.22
73547;SHT30;61807;48.384;-4.386;2022-09-17T17:39:17;16.41;55.12
73547;SHT30;61807;48.384;-4.386;2022-09-17T17:41:42;16.35;55.40
73547;SHT30;61807;48.384;-4.386;2022-09-17T17:44:08;16.33;55.42
73547;SHT30;61807;48.384;-4.386;2022-09-17T17:46:37;16.29;55.45
73547;SHT30;61807;48.384;-4.386;2022-09-17T17:49:04;16.24;55.55
73547;SHT30;61807;48.384;-4.386;2022-09-17T17:51:29;16.19;55.60
73547;SHT30;61807;48.384;-4.386;2022-09-17T17:53:54;16.15;55.62
73547;SHT30;61807;48.384;-4.386;2022-09-17T17:56:20;16.11;55.63
73547;SHT30;61807;48.384;-4.386;2022-09-17T17:58:45;16.05;55.64
73547;SHT30;61807;48.384;-4.386;2022-09-17T18:01:18;16.00;55.51
73547;SHT30;61807;48.384;-4.386;2022-09-17T18:03:43;15.93;55.68
73547;SHT30;61807;48.384;-4.386;2022-09-17T18:06:09;15.94;55.60
73547;SHT30;61807;48.384;-4.386;2022-09-17T18:08:36;15.90;55.72
73547;SHT30;61807;48.384;-4.386;2022-09-17T18:11:03;15.83;55.74
73547;SHT30;61807;48.384;-4.386;2022-09-17T18:13:29;15.77;55.80
73547;SHT30;61807;48.384;-4.386;2022-09-17T18:15:57;15.71;55.63
73547;SHT30;61807;48.384;-4.386;2022-09-17T18:18:24;15.68;55.67
73547;SHT30;61807;48.384;-4.386;2022-09-17T18:20:50;15.63;55.82
73547;SHT30;61807;48.384;-4.386;2022-09-17T18:23:18;15.58;55.94
73547;SHT30;61807;48.384;-4.386;2022-09-17T18:25:58;15.51;56.06
73547;SHT30;61807;48.384;-4.386;2022-09-17T18:28:24;15.47;56.17
73547;SHT30;61807;48.384;-4.386;2022-09-17T18:30:50;15.42;56.38
73547;SHT30;61807;48.384;-4.386;2022-09-17T18:33:21;15.33;56.71
73547;SHT30;61807;48.384;-4.386;2022-09-17T18:35:48;15.26;56.89
73547;SHT30;61807;48.384;-4.386;2022-09-17T18:38:15;15.23;57.20
73547;SHT30;61807;48.384;-4.386;2022-09-17T18:40:41;15.16;57.45
73547;SHT30;61807;48.384;-4.386;2022-09-17T18:43:06;15.09;57.71
73547;SHT30;61807;48.384;-4.386;2022-09-17T18:45:32;15.05;57.90
73547;SHT30;61807;48.384;-4.386;2022-09-17T18:47:57;15.02;58.04
73547;SHT30;61807;48.384;-4.386;2022-09-17T18:50:23;14.98;58.21
73547;SHT30;61807;48.384;-4.386;2022-09-17T18:52:48;14.93;58.50
73547;SHT30;61807;48.384;-4.386;2022-09-17T18:55:14;14.85;58.74
73547;SHT30;61807;48.384;-4.386;2022-09-17T18:57:39;14.78;58.82
73547;SHT30;61807;48.384;-4.386;2022-09-17T19:00:05;14.77;59.02
73547;SHT30;61807;48.384;-4.386;2022-09-17T19:02:33;14.71;59.20
73547;SHT30;61807;48.384;-4.386;2022-09-17T19:04:58;14.67;59.38
73547;SHT30;61807;48.384;-4.386;2022-09-17T19:07:23;14.60;59.52
73547;SHT30;61807;48.384;-4.386;2022-09-17T19:09:49;14.54;59.68
73547;SHT30;61807;48.384;-4.386;2022-09-17T19:12:15;14.45;59.90
73547;SHT30;61807;48.384;-4.386;2022-09-17T19:14:40;14.40;60.03